createdAt,value
2023-05-13T00:00:18.337Z,100.00
2023-05-13T00:02:45.582Z,100.00
2023-05-13T00:05:12.674Z,100.00
2023-05-13T00:07:41.894Z,100.00
2023-05-13T00:10:09.602Z,100.00
2023-05-13T00:12:37.609Z,100.00
2023-05-13T00:15:05.380Z,100.00
2023-05-13T00:17:32.711Z,100.00
2023-05-13T00:20:00.236Z,100.00
2023-05-13T00:22:27.601Z,100.00
2023-05-13T00:24:54.628Z,100.00
2023-05-13T00:27:21.697Z,100.00
2023-05-13T00:29:48.726Z,100.00
2023-05-13T00:32:15.785Z,100.00
2023-05-13T00:34:43.106Z,100.00
2023-05-13T00:37:11.344Z,100.00
2023-05-13T00:39:38.575Z,100.00
2023-05-13T00:42:06.266Z,100.00
2023-05-13T00:44:34.937Z,100.00
2023-05-13T00:47:02.878Z,100.00
2023-05-13T00:49:30.002Z,100.00
2023-05-13T00:51:57.241Z,100.00
2023-05-13T00:54:24.351Z,100.00
2023-05-13T00:56:56.714Z,100.00
2023-05-13T00:59:26.461Z,100.00
2023-05-13T01:02:17.136Z,100.00
2023-05-13T01:05:09.792Z,100.00
2023-05-13T01:07:36.771Z,100.00
2023-05-13T01:10:07.575Z,100.00
2023-05-13T01:12:41.618Z,100.00
2023-05-13T01:15:11.021Z,100.00
2023-05-13T01:17:57.934Z,100.00
2023-05-13T01:20:27.705Z,100.00
2023-05-13T01:22:56.902Z,100.00
2023-05-13T01:25:26.006Z,100.00
2023-05-13T01:27:54.389Z,100.00
2023-05-13T01:30:24.173Z,100.00
2023-05-13T01:32:52.762Z,100.00
2023-05-13T01:35:21.365Z,100.00
2023-05-13T01:37:50.525Z,100.00
2023-05-13T01:40:31.832Z,100.00
2023-05-13T01:43:05.320Z,100.00
2023-05-13T01:45:33.911Z,100.00
2023-05-13T01:48:01.666Z,100.00
2023-05-13T01:50:37.396Z,100.00
2023-05-13T01:53:05.691Z,100.00
2023-05-13T01:55:32.802Z,100.00
2023-05-13T01:58:00.940Z,100.00
2023-05-13T02:00:28.030Z,100.00
2023-05-13T02:02:55.558Z,100.00
2023-05-13T02:05:23.487Z,100.00
2023-05-13T02:07:50.925Z,100.00
2023-05-13T02:10:17.961Z,100.00
2023-05-13T02:12:45.324Z,100.00
2023-05-13T02:15:12.740Z,100.00
2023-05-13T02:17:39.887Z,100.00
2023-05-13T02:20:07.938Z,100.00
2023-05-13T02:22:35.773Z,100.00
2023-05-13T02:25:04.633Z,100.00
2023-05-13T02:27:31.802Z,100.00
2023-05-13T02:29:58.978Z,100.00
2023-05-13T02:32:26.916Z,100.00
2023-05-13T02:34:54.006Z,100.00
2023-05-13T02:37:21.067Z,100.00
2023-05-13T02:39:52.637Z,100.00
2023-05-13T02:42:19.740Z,100.00
2023-05-13T02:44:48.778Z,100.00
2023-05-13T02:47:16.486Z,100.00
2023-05-13T02:49:43.607Z,100.00
2023-05-13T02:52:11.066Z,100.00
2023-05-13T02:54:40.107Z,100.00
2023-05-13T02:57:07.553Z,100.00
2023-05-13T02:59:35.075Z,100.00
2023-05-13T03:02:02.226Z,100.00
2023-05-13T03:04:29.441Z,100.00
2023-05-13T03:06:56.696Z,100.00
2023-05-13T03:09:24.033Z,100.00
2023-05-13T03:11:51.525Z,100.00
2023-05-13T03:14:18.612Z,100.00
2023-05-13T03:16:45.739Z,100.00
2023-05-13T03:19:13.986Z,100.00
2023-05-13T03:21:41.314Z,100.00
2023-05-13T03:24:09.730Z,100.00
2023-05-13T03:26:36.812Z,100.00
2023-05-13T03:29:03.917Z,100.00
2023-05-13T03:31:32.243Z,100.00
2023-05-13T03:33:59.920Z,100.00
2023-05-13T03:36:27.700Z,100.00
2023-05-13T03:38:54.861Z,100.00
2023-05-13T03:41:22.142Z,100.00
2023-05-13T03:43:49.561Z,100.00
2023-05-13T03:46:17.261Z,100.00
2023-05-13T03:48:44.722Z,100.00
2023-05-13T03:51:11.963Z,100.00
2023-05-13T03:53:39.595Z,100.00
2023-05-13T03:56:06.739Z,100.00
2023-05-13T03:58:34.101Z,100.00
2023-05-13T04:01:01.291Z,100.00
2023-05-13T04:03:28.855Z,100.00
2023-05-13T04:05:56.116Z,100.00
2023-05-13T04:08:23.254Z,100.00
2023-05-13T04:10:50.441Z,100.00
2023-05-13T04:13:19.038Z,100.00
2023-05-13T04:15:46.082Z,100.00
2023-05-13T04:18:13.116Z,100.00
2023-05-13T04:20:40.644Z,100.00
2023-05-13T04:23:08.036Z,100.00
2023-05-13T04:25:36.358Z,100.00
2023-05-13T04:28:03.794Z,100.00
2023-05-13T04:30:36.636Z,100.00
2023-05-13T04:33:04.807Z,100.00
2023-05-13T04:35:32.946Z,100.00
2023-05-13T04:38:02.160Z,100.00
2023-05-13T04:40:29.692Z,100.00
2023-05-13T04:42:59.788Z,100.00
2023-05-13T04:45:32.066Z,100.00
2023-05-13T04:48:00.248Z,100.00
2023-05-13T04:50:27.829Z,100.00
2023-05-13T04:52:56.821Z,100.00
2023-05-13T04:55:25.979Z,100.00
2023-05-13T04:57:54.126Z,100.00
2023-05-13T05:00:21.946Z,100.00
2023-05-13T05:02:50.829Z,100.00
2023-05-13T05:05:18.580Z,100.00
2023-05-13T05:07:46.522Z,100.00
2023-05-13T05:10:15.965Z,100.00
2023-05-13T05:12:48.749Z,100.00
2023-05-13T05:15:16.253Z,100.00
2023-05-13T05:17:46.625Z,100.00
2023-05-13T05:20:13.941Z,100.00
2023-05-13T05:22:42.483Z,100.00
2023-05-13T05:25:11.947Z,100.00
2023-05-13T05:27:39.432Z,100.00
2023-05-13T05:30:09.226Z,100.00
2023-05-13T05:32:37.358Z,100.00
2023-05-13T05:35:06.158Z,100.00
2023-05-13T05:37:34.764Z,100.00
2023-05-13T05:40:01.940Z,100.00
2023-05-13T05:42:29.760Z,100.00
2023-05-13T05:44:56.861Z,100.00
2023-05-13T05:47:24.648Z,100.00
2023-05-13T05:49:52.035Z,100.00
2023-05-13T05:52:19.631Z,100.00
2023-05-13T05:54:46.793Z,100.00
2023-05-13T05:57:14.700Z,100.00
2023-05-13T05:59:41.894Z,100.00
2023-05-13T06:02:09.197Z,100.00
2023-05-13T06:04:36.370Z,100.00
2023-05-13T06:07:04.240Z,98.92
2023-05-13T06:09:31.727Z,95.85
2023-05-13T06:11:58.851Z,96.80
2023-05-13T06:14:26.096Z,90.99
2023-05-13T06:16:54.949Z,88.59
2023-05-13T06:19:22.966Z,88.10
2023-05-13T06:21:50.126Z,86.22
2023-05-13T06:24:17.350Z,84.83
2023-05-13T06:26:45.564Z,84.85
2023-05-13T06:29:14.865Z,82.76
2023-05-13T06:31:42.151Z,81.30
2023-05-13T06:34:16.914Z,76.96
2023-05-13T06:36:44.688Z,73.56
2023-05-13T06:39:13.016Z,73.28
2023-05-13T06:41:41.038Z,72.55
2023-05-13T06:44:12.944Z,73.15
2023-05-13T06:46:44.669Z,70.72
2023-05-13T06:49:12.222Z,69.68
2023-05-13T06:51:39.387Z,69.18
2023-05-13T06:54:06.535Z,67.51
2023-05-13T06:56:34.896Z,66.55
2023-05-13T06:59:02.421Z,65.33
2023-05-13T07:01:29.614Z,64.40
2023-05-13T07:03:57.229Z,62.66
2023-05-13T07:06:24.383Z,59.33
2023-05-13T07:08:51.589Z,58.64
2023-05-13T07:11:18.869Z,58.19
2023-05-13T07:13:46.851Z,57.67
2023-05-13T07:16:15.327Z,56.81
2023-05-13T07:18:42.820Z,55.48
2023-05-13T07:21:10.594Z,53.83
2023-05-13T07:23:37.836Z,50.87
2023-05-13T07:26:05.000Z,50.69
2023-05-13T07:28:32.435Z,50.23
2023-05-13T07:30:59.777Z,47.70
2023-05-13T07:33:27.710Z,47.40
2023-05-13T07:35:54.983Z,46.44
2023-05-13T07:38:23.004Z,46.12
2023-05-13T07:40:50.825Z,45.84
2023-05-13T07:43:24.217Z,44.94
2023-05-13T07:45:51.749Z,44.74
2023-05-13T07:48:19.976Z,44.84
2023-05-13T07:50:47.359Z,45.50
2023-05-13T07:53:14.800Z,45.20
2023-05-13T07:55:42.422Z,45.47
2023-05-13T07:58:09.809Z,44.22
2023-05-13T08:00:37.444Z,43.48
2023-05-13T08:03:04.903Z,43.70
2023-05-13T08:05:32.380Z,43.82
2023-05-13T08:07:59.664Z,42.94
2023-05-13T08:10:26.754Z,41.87
2023-05-13T08:12:58.094Z,42.26
2023-05-13T08:15:27.315Z,42.58
2023-05-13T08:17:55.111Z,42.64
2023-05-13T08:20:26.851Z,42.70
2023-05-13T08:22:54.022Z,42.09
2023-05-13T08:25:21.803Z,42.15
2023-05-13T08:27:49.265Z,42.43
2023-05-13T08:30:17.069Z,42.38
2023-05-13T08:32:44.511Z,41.12
2023-05-13T08:35:11.880Z,40.69
2023-05-13T08:37:39.204Z,40.82
2023-05-13T08:40:07.220Z,40.98
2023-05-13T08:42:38.483Z,41.10
2023-05-13T08:45:08.773Z,40.59
2023-05-13T08:48:01.679Z,41.07
2023-05-13T08:50:30.062Z,40.59
2023-05-13T08:53:01.135Z,40.59
2023-05-13T08:55:29.124Z,40.58
2023-05-13T08:57:56.595Z,40.49
2023-05-13T09:00:24.546Z,40.68
2023-05-13T09:02:52.048Z,40.28
2023-05-13T09:05:20.822Z,39.05
2023-05-13T09:07:48.387Z,38.98
2023-05-13T09:10:17.946Z,39.19
2023-05-13T09:12:46.300Z,38.98
2023-05-13T09:15:16.065Z,38.61
2023-05-13T09:17:45.784Z,38.60
2023-05-13T09:20:15.355Z,38.54
2023-05-13T09:23:00.457Z,38.70
2023-05-13T09:25:29.067Z,38.65
2023-05-13T09:27:59.128Z,38.70
2023-05-13T09:30:28.263Z,39.08
2023-05-13T09:33:11.690Z,39.16
2023-05-13T09:35:41.074Z,39.32
2023-05-13T09:38:20.264Z,39.52
2023-05-13T09:41:05.597Z,39.68
2023-05-13T09:43:34.189Z,40.03
2023-05-13T09:46:03.494Z,40.37
2023-05-13T09:48:34.103Z,40.21
2023-05-13T09:51:01.585Z,40.61
2023-05-13T09:53:29.276Z,40.70
2023-05-13T09:55:58.841Z,40.96
2023-05-13T09:58:31.027Z,40.76
2023-05-13T10:00:59.040Z,40.66
2023-05-13T10:03:28.924Z,40.41
2023-05-13T10:06:00.465Z,40.04
2023-05-13T10:08:28.961Z,39.45
2023-05-13T10:10:56.987Z,39.36
2023-05-13T10:13:25.072Z,39.50
2023-05-13T12:20:10.003Z,37.99
2023-05-13T12:22:43.811Z,37.67
2023-05-13T12:25:40.288Z,37.76
2023-05-13T12:28:12.077Z,38.08
2023-05-13T12:30:45.051Z,38.14
2023-05-13T12:33:16.950Z,38.23
2023-05-13T12:35:45.402Z,38.53
2023-05-13T12:38:19.261Z,38.85
2023-05-13T12:40:48.189Z,38.79
2023-05-13T12:43:17.700Z,38.63
2023-05-13T12:45:46.313Z,38.06
2023-05-13T12:48:14.773Z,38.11
2023-05-13T12:50:41.855Z,37.88
2023-05-13T12:53:09.020Z,37.74
2023-05-13T12:55:40.322Z,38.02
2023-05-13T12:58:11.359Z,37.91
2023-05-13T13:00:38.518Z,37.86
2023-05-13T13:03:06.150Z,37.84
2023-05-13T13:05:33.674Z,38.01
2023-05-13T13:08:05.528Z,38.20
2023-05-13T13:10:32.867Z,38.21
2023-05-13T13:12:59.889Z,38.17
2023-05-13T13:15:26.984Z,38.24
2023-05-13T13:17:54.038Z,38.13
2023-05-13T13:20:21.141Z,38.11
2023-05-13T13:22:48.213Z,38.31
2023-05-13T13:25:15.514Z,37.94
2023-05-13T13:27:42.562Z,37.82
2023-05-13T13:30:09.947Z,37.61
2023-05-13T13:32:37.048Z,37.52
2023-05-13T13:35:05.808Z,37.34
2023-05-13T13:37:32.896Z,37.39
2023-05-13T13:39:59.895Z,37.53
2023-05-13T13:42:40.193Z,37.56
2023-05-13T13:45:11.037Z,37.71
2023-05-13T13:47:38.604Z,37.74
2023-05-13T13:50:06.480Z,37.69
2023-05-13T13:52:33.624Z,37.82
2023-05-13T13:55:00.806Z,37.81
2023-05-13T13:57:27.878Z,37.98
2023-05-13T13:59:55.075Z,38.19
2023-05-13T14:02:22.553Z,38.43
2023-05-13T14:04:49.610Z,38.45
2023-05-13T14:07:16.834Z,38.59
2023-05-13T14:09:43.905Z,38.73
2023-05-13T14:12:10.921Z,38.89
2023-05-13T14:14:37.960Z,39.35
2023-05-13T14:17:05.127Z,39.37
2023-05-13T14:19:32.141Z,39.68
2023-05-13T14:21:59.239Z,39.79
2023-05-13T14:24:27.715Z,40.12
2023-05-13T14:26:55.239Z,40.44
2023-05-13T14:29:22.401Z,40.81
2023-05-13T14:31:49.787Z,40.89
2023-05-13T14:34:16.859Z,41.05
2023-05-13T14:36:43.954Z,41.39
2023-05-13T14:39:11.186Z,41.50
2023-05-13T14:41:39.520Z,41.62
2023-05-13T14:44:06.691Z,41.73
2023-05-13T14:46:37.325Z,41.83
2023-05-13T14:49:04.447Z,41.94
2023-05-13T14:51:31.671Z,42.23
2023-05-13T14:53:58.659Z,42.29
2023-05-13T14:56:25.712Z,42.39
2023-05-13T14:58:53.614Z,42.43
2023-05-13T15:01:20.815Z,42.55
2023-05-13T15:03:47.827Z,42.62
2023-05-13T15:06:15.078Z,42.62
2023-05-13T15:08:42.222Z,42.88
2023-05-13T15:11:09.277Z,43.06
2023-05-13T15:13:37.143Z,43.06
2023-05-13T15:16:05.033Z,43.07
2023-05-13T15:18:32.445Z,43.03
2023-05-13T15:20:59.511Z,43.18
2023-05-13T15:23:26.517Z,43.21
2023-05-13T15:25:53.581Z,43.40
2023-05-13T15:28:20.746Z,43.48
2023-05-13T15:30:47.855Z,43.55
2023-05-13T15:33:15.059Z,43.67
2023-05-13T15:35:43.072Z,43.76
2023-05-13T15:38:10.946Z,43.92
2023-05-13T15:40:38.733Z,44.10
2023-05-13T15:43:05.838Z,44.21
2023-05-13T15:45:32.918Z,44.21
2023-05-13T15:47:59.974Z,44.43
2023-05-13T15:50:27.659Z,44.42
2023-05-13T15:52:55.532Z,44.66
2023-05-13T15:55:22.955Z,44.69
2023-05-13T15:57:50.562Z,44.74
2023-05-13T16:00:18.806Z,44.70
2023-05-13T16:02:45.854Z,44.64
2023-05-13T16:05:15.479Z,44.48
2023-05-13T16:07:42.959Z,44.39
2023-05-13T16:10:10.508Z,44.35
2023-05-13T16:12:37.921Z,44.37
2023-05-13T16:15:06.534Z,44.35
2023-05-13T16:17:33.701Z,44.37
2023-05-13T16:20:00.871Z,44.36
2023-05-13T16:22:38.149Z,44.48
2023-05-13T16:25:10.193Z,44.58
2023-05-13T16:27:38.702Z,44.70
2023-05-13T16:30:07.600Z,44.99
2023-05-13T16:32:35.213Z,45.19
2023-05-13T16:35:03.696Z,45.28
2023-05-13T16:37:31.709Z,45.51
2023-05-13T16:39:59.024Z,45.60
2023-05-13T16:42:26.308Z,45.90
2023-05-13T16:44:53.336Z,46.06
2023-05-13T16:47:20.470Z,46.32
2023-05-13T16:49:50.067Z,46.60
2023-05-13T16:52:17.190Z,47.05
2023-05-13T16:54:44.932Z,47.39
2023-05-13T16:57:12.068Z,47.78
2023-05-13T16:59:39.243Z,48.03
2023-05-13T17:02:07.584Z,48.17
2023-05-13T17:04:35.352Z,48.49
2023-05-13T17:07:03.257Z,48.89
2023-05-13T17:09:30.944Z,49.01
2023-05-13T17:11:58.215Z,49.30
2023-05-13T17:14:25.400Z,49.66
2023-05-13T17:16:52.754Z,49.86
2023-05-13T17:19:20.000Z,50.10
2023-05-13T17:21:47.338Z,50.31
2023-05-13T17:24:14.454Z,50.58
2023-05-13T17:26:41.481Z,50.74
2023-05-13T17:29:08.520Z,50.96
2023-05-13T17:31:35.818Z,51.29
2023-05-13T17:34:02.908Z,51.63
2023-05-13T17:36:30.182Z,52.08
2023-05-13T17:38:57.261Z,52.43
2023-05-13T17:41:24.509Z,52.85
2023-05-13T17:43:51.768Z,53.26
2023-05-13T17:46:18.845Z,53.63
2023-05-13T17:48:46.051Z,54.04
2023-05-13T17:51:13.101Z,54.52
2023-05-13T17:53:40.178Z,54.86
2023-05-13T17:56:10.661Z,55.21
2023-05-13T17:58:37.747Z,55.62
2023-05-13T18:01:04.926Z,55.91
2023-05-13T18:03:31.939Z,56.02
2023-05-13T18:05:59.110Z,56.30
2023-05-13T18:08:26.432Z,56.81
2023-05-13T18:10:53.492Z,57.29
2023-05-13T18:13:20.508Z,57.74
2023-05-13T18:15:47.665Z,58.24
2023-05-13T18:18:16.319Z,58.65
2023-05-13T18:20:43.400Z,59.18
2023-05-13T18:23:10.594Z,59.69
2023-05-13T18:25:48.579Z,60.23
2023-05-13T18:28:22.004Z,60.75
2023-05-13T18:30:49.039Z,61.18
2023-05-13T18:33:16.060Z,61.56
2023-05-13T18:35:43.150Z,62.03
2023-05-13T18:38:10.278Z,62.42
2023-05-13T18:40:37.319Z,62.73
2023-05-13T18:43:04.412Z,63.03
2023-05-13T18:45:31.485Z,63.31
2023-05-13T18:47:58.726Z,63.80
2023-05-13T18:50:25.796Z,64.25
2023-05-13T18:52:52.851Z,64.80
2023-05-13T18:55:19.928Z,65.30
2023-05-13T18:57:47.464Z,65.83
2023-05-13T19:00:14.836Z,66.43
2023-05-13T19:02:42.156Z,66.79
2023-05-13T19:05:09.555Z,67.52
2023-05-13T19:07:37.288Z,67.68
2023-05-13T19:10:04.566Z,67.84
2023-05-13T19:12:31.622Z,68.30
2023-05-13T19:14:58.641Z,68.84
2023-05-13T19:17:26.232Z,69.18
2023-05-13T19:19:53.335Z,69.60
2023-05-13T19:22:20.408Z,69.97
2023-05-13T19:24:47.568Z,70.34
2023-05-13T19:27:14.732Z,70.75
2023-05-13T19:29:41.763Z,71.26
2023-05-13T19:32:08.788Z,71.66
2023-05-13T19:34:35.887Z,72.21
2023-05-13T19:37:02.982Z,72.81
2023-05-13T19:39:30.047Z,73.47
2023-05-13T19:41:57.121Z,73.84
2023-05-13T19:44:27.810Z,74.16
2023-05-13T19:46:55.435Z,74.57
2023-05-13T19:49:22.706Z,74.87
2023-05-13T19:51:49.692Z,74.75
2023-05-13T19:54:16.765Z,74.46
2023-05-13T19:56:43.887Z,74.64
2023-05-13T19:59:10.936Z,75.32
2023-05-13T20:01:38.104Z,76.41
2023-05-13T20:04:05.204Z,77.55
2023-05-13T20:06:32.866Z,78.61
2023-05-13T20:09:01.064Z,79.68
2023-05-13T20:11:28.303Z,80.79
2023-05-13T20:13:56.070Z,82.00
2023-05-13T20:16:23.723Z,82.99
2023-05-13T20:18:50.917Z,83.96
2023-05-13T20:21:18.107Z,85.11
2023-05-13T20:23:45.136Z,86.06
2023-05-13T20:26:12.175Z,87.08
2023-05-13T20:28:39.206Z,88.45
2023-05-13T20:31:06.879Z,90.14
2023-05-13T20:33:33.962Z,91.35
2023-05-13T20:36:01.130Z,92.43
2023-05-13T20:38:28.265Z,93.09
2023-05-13T20:40:55.457Z,93.13
2023-05-13T20:43:22.444Z,92.82
2023-05-13T20:45:49.601Z,92.70
2023-05-13T20:48:16.749Z,92.58
2023-05-13T20:50:43.823Z,93.12
2023-05-13T20:53:10.900Z,93.52
2023-05-13T20:55:37.931Z,94.57
2023-05-13T20:58:04.985Z,95.65
2023-05-13T21:00:32.070Z,96.70
2023-05-13T21:02:59.978Z,97.88
2023-05-13T21:05:27.178Z,98.36
2023-05-13T21:07:54.270Z,98.95
2023-05-13T21:10:21.803Z,99.29
2023-05-13T21:12:49.279Z,99.74
2023-05-13T21:15:16.903Z,100.00
2023-05-13T21:17:44.102Z,100.00
2023-05-13T21:20:11.883Z,100.00
2023-05-13T21:22:38.895Z,100.00
2023-05-13T21:25:06.692Z,100.00
2023-05-13T21:27:33.730Z,100.00
2023-05-13T21:30:00.736Z,100.00
2023-05-13T21:32:27.745Z,100.00
2023-05-13T21:34:56.092Z,100.00
2023-05-13T21:37:23.366Z,100.00
2023-05-13T21:39:50.380Z,100.00
2023-05-13T21:42:17.458Z,100.00
2023-05-13T21:44:44.474Z,100.00
2023-05-13T21:47:11.501Z,100.00
2023-05-13T21:49:38.516Z,100.00
2023-05-13T21:52:05.904Z,100.00
2023-05-13T21:54:32.949Z,100.00
2023-05-13T21:57:01.201Z,100.00
2023-05-13T21:59:28.247Z,100.00
2023-05-13T22:01:55.404Z,100.00
2023-05-13T22:04:25.634Z,100.00
2023-05-13T22:06:53.556Z,100.00
2023-05-13T22:09:20.578Z,100.00
2023-05-13T22:11:47.608Z,100.00
2023-05-13T22:14:14.715Z,100.00
2023-05-13T22:16:41.848Z,100.00
2023-05-13T22:19:09.023Z,100.00
2023-05-13T22:21:36.284Z,100.00
2023-05-13T22:24:06.497Z,100.00
2023-05-13T22:26:33.540Z,100.00
2023-05-13T22:29:00.957Z,100.00
2023-05-13T22:31:28.040Z,100.00
2023-05-13T22:33:55.065Z,100.00
2023-05-13T22:36:22.075Z,100.00
2023-05-13T22:38:49.108Z,100.00
2023-05-13T22:41:18.993Z,100.00
2023-05-13T22:43:46.117Z,100.00
2023-05-13T22:46:13.193Z,100.00
2023-05-13T22:48:40.258Z,100.00
2023-05-13T22:51:07.330Z,100.00
2023-05-13T22:53:34.420Z,100.00
2023-05-13T22:56:01.468Z,100.00
2023-05-13T22:58:28.540Z,100.00
2023-05-13T23:00:55.608Z,100.00
2023-05-13T23:03:22.637Z,100.00
2023-05-13T23:05:49.866Z,100.00
2023-05-13T23:08:16.944Z,100.00
2023-05-13T23:10:43.978Z,100.00
2023-05-13T23:13:11.025Z,100.00
2023-05-13T23:15:38.104Z,100.00
2023-05-13T23:18:05.238Z,100.00
2023-05-13T23:20:32.388Z,100.00
2023-05-13T23:22:59.411Z,100.00
2023-05-13T23:25:26.445Z,100.00
2023-05-13T23:27:53.478Z,100.00
2023-05-13T23:30:20.627Z,100.00
2023-05-13T23:32:48.299Z,100.00
2023-05-13T23:35:15.470Z,100.00
2023-05-13T23:37:42.537Z,100.00
2023-05-13T23:40:10.200Z,100.00
2023-05-13T23:42:38.373Z,100.00
2023-05-13T23:45:05.897Z,100.00
2023-05-13T23:47:32.965Z,100.00
2023-05-13T23:50:00.145Z,100.00
2023-05-13T23:52:27.236Z,100.00
2023-05-13T23:54:54.291Z,100.00
2023-05-13T23:57:22.393Z,100.00
2023-05-13T23:59:49.589Z,100.00
